Time;durP1;ratioP1;P1;durP2;ratioP2;P2;SDS_P1;SDS_P2;PMS_P1;PMS_P2;Temp;Humidity;BMP_temperature;BMP_pressure;BME280_temperature;BME280_humidity;BME280_pressure;Samples;Min_cycle;Max_cycle;Signal;HPM_P1;HPM_P2
2023/02/12 00:03:36;;;;;;;26.45;21.23;;;;;;;;;;10329533;28;20466;-70
2023/02/12 00:08:35;;;;;;;28.38;20.75;;;;;;;;;;10328496;28;20079;-70
2023/02/12 00:13:35;;;;;;;26.73;19.85;;;;;;;;;;10331689;28;20087;-71
2023/02/12 00:18:33;;;;;;;31.02;22.80;;;;;;;;;;10334836;28;20064;-70
2023/02/12 00:23:31;;;;;;;27.52;20.45;;;;;;;;;;10334928;28;20335;-70
2023/02/12 00:28:30;;;;;;;27.73;21.80;;;;;;;;;;10336248;28;20076;-70
2023/02/12 00:33:29;;;;;;;28.70;22.00;;;;;;;;;;10324160;28;20106;-70
2023/02/12 00:38:27;;;;;;;30.35;20.50;;;;;;;;;;10334906;28;20072;-70
2023/02/12 00:43:26;;;;;;;27.88;19.10;;;;;;;;;;10334554;28;20068;-69
2023/02/12 00:48:24;;;;;;;29.80;20.13;;;;;;;;;;10317680;28;20080;-69
2023/02/12 00:53:23;;;;;;;29.08;21.17;;;;;;;;;;10317783;28;20091;-69
2023/02/12 00:58:22;;;;;;;28.45;21.55;;;;;;;;;;10331405;28;20075;-70
2023/02/12 01:03:20;;;;;;;27.52;21.20;;;;;;;;;;10334538;28;20545;-70
2023/02/12 01:08:18;;;;;;;29.60;22.40;;;;;;;;;;10334124;28;20072;-70
2023/02/12 01:13:18;;;;;;;35.60;23.48;;;;;;;;;;10335240;28;20492;-70
2023/02/12 01:18:17;;;;;;;30.83;23.90;;;;;;;;;;10332758;28;20517;-70
2023/02/12 01:23:15;;;;;;;31.58;24.23;;;;;;;;;;10331987;28;20068;-70
2023/02/12 01:28:14;;;;;;;30.45;21.50;;;;;;;;;;10333771;28;20083;-70
2023/02/12 01:33:13;;;;;;;29.48;22.90;;;;;;;;;;10334184;28;20079;-70
2023/02/12 01:38:11;;;;;;;33.65;23.30;;;;;;;;;;10334487;28;20072;-70
2023/02/12 01:43:11;;;;;;;32.20;23.85;;;;;;;;;;10333064;28;20067;-70
2023/02/12 01:48:10;;;;;;;36.78;25.73;;;;;;;;;;10334368;28;20102;-70
2023/02/12 01:53:09;;;;;;;30.38;22.90;;;;;;;;;;10333401;28;20072;-70
2023/02/12 01:58:08;;;;;;;32.15;23.63;;;;;;;;;;10332904;28;20071;-69
2023/02/12 02:03:07;;;;;;;34.03;24.30;;;;;;;;;;10332955;28;20514;-70
2023/02/12 02:08:05;;;;;;;31.67;24.38;;;;;;;;;;10332878;28;20088;-70
2023/02/12 02:18:23;;;;;;;29.77;22.17;;;;;;;;;;10331600;28;20067;-70
2023/02/12 02:23:38;;;;;;;31.40;23.77;;;;;;;;;;10333054;28;20045;-70
2023/02/12 02:29:00;;;;;;;35.20;22.38;;;;;;;;;;10333717;28;20091;-70
2023/02/12 02:34:02;;;;;;;57.22;35.50;;;;;;;;;;10320577;28;20504;-70
2023/02/12 02:39:03;;;;;;;35.70;25.00;;;;;;;;;;10332816;28;20477;-69
2023/02/12 02:44:03;;;;;;;36.55;26.30;;;;;;;;;;10328045;28;20161;-70
2023/02/12 02:49:05;;;;;;;40.42;28.33;;;;;;;;;;10329270;28;20501;-70
2023/02/12 02:54:05;;;;;;;40.33;27.98;;;;;;;;;;10331628;28;20068;-70
2023/02/12 02:59:05;;;;;;;34.60;27.15;;;;;;;;;;10332296;28;20067;-69
2023/02/12 03:04:06;;;;;;;37.03;25.38;;;;;;;;;;10312642;28;20087;-69
2023/02/12 03:09:09;;;;;;;36.38;26.83;;;;;;;;;;10330056;28;20063;-70
2023/02/12 03:14:11;;;;;;;33.88;25.15;;;;;;;;;;10331919;28;20071;-70
2023/02/12 03:19:12;;;;;;;35.17;24.55;;;;;;;;;;10330243;28;20068;-70
2023/02/12 03:24:13;;;;;;;38.80;24.05;;;;;;;;;;10329816;28;20075;-69
2023/02/12 03:29:11;;;;;;;34.97;23.08;;;;;;;;;;10330439;28;20072;-70
2023/02/12 03:34:17;;;;;;;35.60;24.40;;;;;;;;;;10329364;28;20074;-70
2023/02/12 03:39:20;;;;;;;36.90;25.38;;;;;;;;;;10327657;28;20080;-70
2023/02/12 03:44:21;;;;;;;38.17;28.42;;;;;;;;;;10325973;28;20067;-69
2023/02/12 03:49:24;;;;;;;46.63;30.88;;;;;;;;;;10336066;28;20467;-70
2023/02/12 03:54:22;;;;;;;68.28;38.03;;;;;;;;;;10319388;28;20106;-70
2023/02/12 03:59:22;;;;;;;40.45;27.55;;;;;;;;;;10338752;28;20068;-70
2023/02/12 04:04:23;;;;;;;49.00;28.80;;;;;;;;;;10337321;28;20072;-70
2023/02/12 04:09:21;;;;;;;42.45;29.50;;;;;;;;;;10337141;28;20068;-70
2023/02/12 04:14:24;;;;;;;36.83;25.63;;;;;;;;;;10340955;28;20079;-70
2023/02/12 04:19:29;;;;;;;34.53;25.52;;;;;;;;;;10338177;28;20129;-70
2023/02/12 04:24:32;;;;;;;38.67;27.90;;;;;;;;;;10336933;28;20072;-70
2023/02/12 04:29:34;;;;;;;40.20;27.65;;;;;;;;;;10337135;28;20074;-71
2023/02/12 04:34:35;;;;;;;52.97;36.35;;;;;;;;;;10331891;28;20469;-70
2023/02/12 04:39:36;;;;;;;40.33;32.13;;;;;;;;;;10332997;28;20068;-71
2023/02/12 04:44:37;;;;;;;37.38;27.23;;;;;;;;;;10337106;28;20091;-70
2023/02/12 04:49:37;;;;;;;36.60;26.63;;;;;;;;;;10337647;28;20087;-70
2023/02/12 04:54:35;;;;;;;45.90;30.55;;;;;;;;;;10334705;28;20071;-70
2023/02/12 04:59:33;;;;;;;70.05;42.58;;;;;;;;;;10334250;28;20664;-70
2023/02/12 05:04:31;;;;;;;44.45;31.58;;;;;;;;;;10334226;28;20072;-70
2023/02/12 05:09:31;;;;;;;42.92;29.42;;;;;;;;;;10334419;28;20086;-70
2023/02/12 05:14:31;;;;;;;50.05;34.38;;;;;;;;;;10335937;28;20059;-71
2023/02/12 05:19:29;;;;;;;46.03;33.03;;;;;;;;;;10329960;28;20496;-70
2023/02/12 05:24:28;;;;;;;47.42;33.35;;;;;;;;;;10334085;28;20444;-70
2023/02/12 05:29:27;;;;;;;42.53;30.27;;;;;;;;;;10335667;28;20076;-70
2023/02/12 05:34:25;;;;;;;53.22;36.33;;;;;;;;;;10333018;28;20087;-70
2023/02/12 05:39:24;;;;;;;44.58;32.65;;;;;;;;;;10331411;28;20067;-70
2023/02/12 05:44:22;;;;;;;49.78;32.35;;;;;;;;;;10335911;28;20067;-70
2023/02/12 05:49:21;;;;;;;45.65;33.88;;;;;;;;;;10334385;28;20067;-70
2023/02/12 05:54:20;;;;;;;47.50;34.60;;;;;;;;;;10329583;28;20072;-71
2023/02/12 05:59:19;;;;;;;40.80;31.20;;;;;;;;;;10332140;28;20063;-71
2023/02/12 06:04:18;;;;;;;50.78;35.45;;;;;;;;;;10334606;28;20068;-70
2023/02/12 06:09:18;;;;;;;46.10;32.47;;;;;;;;;;10333675;28;20072;-70
2023/02/12 06:14:18;;;;;;;54.50;37.08;;;;;;;;;;10333594;28;20223;-71
2023/02/12 06:19:17;;;;;;;50.53;34.90;;;;;;;;;;10331304;28;20650;-70
2023/02/12 06:24:16;;;;;;;52.60;39.15;;;;;;;;;;10321263;28;20075;-70
2023/02/12 06:29:18;;;;;;;45.03;31.95;;;;;;;;;;10332943;28;20071;-71
2023/02/12 06:34:16;;;;;;;57.08;40.20;;;;;;;;;;10329944;28;20068;-69
2023/02/12 06:39:16;;;;;;;43.00;30.80;;;;;;;;;;10310986;28;20091;-69
2023/02/12 06:44:14;;;;;;;103.07;60.00;;;;;;;;;;10326384;28;20060;-70
2023/02/12 06:49:15;;;;;;;47.97;34.78;;;;;;;;;;10328898;28;20538;-70
2023/02/12 06:54:13;;;;;;;51.17;38.28;;;;;;;;;;10326731;28;20079;-69
2023/02/12 06:59:12;;;;;;;48.28;38.00;;;;;;;;;;10326816;28;20434;-69
2023/02/12 07:04:11;;;;;;;47.95;34.25;;;;;;;;;;10330445;28;20059;-69
2023/02/12 07:09:11;;;;;;;44.53;34.72;;;;;;;;;;10334066;28;20082;-69
2023/02/12 07:14:13;;;;;;;49.80;34.03;;;;;;;;;;10333304;28;20077;-69
2023/02/12 07:19:13;;;;;;;43.22;31.40;;;;;;;;;;10336791;28;20064;-69
2023/02/12 07:24:12;;;;;;;40.65;31.02;;;;;;;;;;10354739;28;20560;-69
2023/02/12 07:29:11;;;;;;;46.15;33.28;;;;;;;;;;10352777;28;20075;-70
2023/02/12 07:34:10;;;;;;;42.63;34.20;;;;;;;;;;10336918;28;20077;-66
2023/02/12 07:39:08;;;;;;;57.35;39.30;;;;;;;;;;10328524;28;20155;-70
2023/02/12 07:44:09;;;;;;;57.83;41.13;;;;;;;;;;10325830;28;20064;-70
2023/02/12 07:49:09;;;;;;;51.40;33.88;;;;;;;;;;10321268;28;20064;-70
2023/02/12 07:54:08;;;;;;;71.05;49.38;;;;;;;;;;10325633;28;20090;-70
2023/02/12 07:59:09;;;;;;;60.45;45.13;;;;;;;;;;10326923;28;20079;-70
2023/02/12 08:04:08;;;;;;;49.13;36.33;;;;;;;;;;10322262;28;20076;-70
2023/02/12 08:09:08;;;;;;;64.93;49.90;;;;;;;;;;10310786;28;20079;-70
2023/02/12 08:14:10;;;;;;;79.15;49.47;;;;;;;;;;10328953;28;20091;-70
2023/02/12 08:19:09;;;;;;;95.45;62.10;;;;;;;;;;10330183;28;20434;-70
2023/02/12 08:24:17;;;;;;;83.50;57.78;;;;;;;;;;10330412;28;20082;-70
2023/02/12 08:29:17;;;;;;;63.55;42.25;;;;;;;;;;10329287;28;20072;-70
2023/02/12 08:34:17;;;;;;;59.40;44.17;;;;;;;;;;10331645;28;20169;-68
2023/02/12 08:39:16;;;;;;;71.43;49.97;;;;;;;;;;10338344;28;20520;-69
2023/02/12 08:44:14;;;;;;;59.47;41.97;;;;;;;;;;10336875;28;20067;-68
2023/02/12 08:49:14;;;;;;;107.00;67.32;;;;;;;;;;10339434;28;20093;-69
2023/02/12 08:54:13;;;;;;;190.32;107.03;;;;;;;;;;10339753;28;20064;-69
2023/02/12 08:59:12;;;;;;;104.47;62.40;;;;;;;;;;10336249;28;20061;-69
2023/02/12 09:04:13;;;;;;;71.07;46.75;;;;;;;;;;10335132;28;20076;-70
2023/02/12 09:09:14;;;;;;;76.38;52.03;;;;;;;;;;10336075;28;20083;-69
2023/02/12 09:14:13;;;;;;;54.22;38.38;;;;;;;;;;10336321;28;20076;-69
2023/02/12 09:19:12;;;;;;;52.28;39.28;;;;;;;;;;10335831;28;20080;-69
2023/02/12 09:24:10;;;;;;;49.00;32.78;;;;;;;;;;10334317;28;20074;-69
2023/02/12 09:29:10;;;;;;;59.95;42.40;;;;;;;;;;10331425;28;20127;-70
2023/02/12 09:34:08;;;;;;;67.32;48.08;;;;;;;;;;10333080;28;20064;-69
2023/02/12 09:39:06;;;;;;;59.05;44.10;;;;;;;;;;10332683;28;20082;-68
2023/02/12 09:44:06;;;;;;;72.00;55.90;;;;;;;;;;10334460;28;20066;-68
2023/02/12 09:49:10;;;;;;;59.17;42.42;;;;;;;;;;10331730;28;20072;-68
2023/02/12 09:54:12;;;;;;;126.35;76.68;;;;;;;;;;10329628;28;20075;-69
2023/02/12 09:59:13;;;;;;;86.97;56.83;;;;;;;;;;10334975;28;20258;-69
2023/02/12 10:04:12;;;;;;;59.55;43.35;;;;;;;;;;10315881;28;20099;-69
2023/02/12 10:09:26;;;;;;;76.15;55.05;;;;;;;;;;10334219;28;20072;-69
2023/02/12 10:14:31;;;;;;;60.20;45.22;;;;;;;;;;10334700;28;20083;-68
2023/02/12 10:19:38;;;;;;;63.00;45.70;;;;;;;;;;10336517;28;20080;-69
2023/02/12 10:24:42;;;;;;;48.45;38.08;;;;;;;;;;10334120;28;20469;-69
2023/02/12 10:29:42;;;;;;;75.28;54.30;;;;;;;;;;10329044;28;20067;-69
2023/02/12 10:34:42;;;;;;;71.97;55.17;;;;;;;;;;10335735;28;20076;-69
2023/02/12 10:39:42;;;;;;;62.60;47.88;;;;;;;;;;10331775;28;20071;-69
2023/02/12 10:44:40;;;;;;;51.28;38.85;;;;;;;;;;10332680;28;20537;-69
2023/02/12 10:49:39;;;;;;;60.80;41.65;;;;;;;;;;10336168;28;20477;-67
2023/02/12 10:54:40;;;;;;;75.68;60.72;;;;;;;;;;10331298;28;20087;-67
2023/02/12 10:59:39;;;;;;;50.47;37.42;;;;;;;;;;10329768;28;20084;-67
2023/02/12 11:04:38;;;;;;;67.93;47.30;;;;;;;;;;10331692;28;21065;-67
2023/02/12 11:09:44;;;;;;;64.78;45.65;;;;;;;;;;10331927;28;20063;-67
2023/02/12 11:14:47;;;;;;;70.07;48.40;;;;;;;;;;10331486;28;20474;-67
2023/02/12 11:20:01;;;;;;;76.47;49.28;;;;;;;;;;10332957;28;20074;-67
2023/02/12 11:25:00;;;;;;;58.25;41.60;;;;;;;;;;10330601;28;20076;-68
2023/02/12 11:30:13;;;;;;;69.05;48.20;;;;;;;;;;10332102;28;20072;-67
2023/02/12 11:35:14;;;;;;;107.82;61.67;;;;;;;;;;10328351;28;20537;-68
2023/02/12 11:40:26;;;;;;;84.28;52.40;;;;;;;;;;10330418;28;20083;-67
2023/02/12 11:45:29;;;;;;;56.47;39.95;;;;;;;;;;10334009;28;20068;-67
2023/02/12 11:50:28;;;;;;;68.88;45.20;;;;;;;;;;10329132;28;20064;-67
2023/02/12 11:55:27;;;;;;;54.65;39.90;;;;;;;;;;10327833;28;20106;-68
2023/02/12 12:00:32;;;;;;;61.88;42.72;;;;;;;;;;10329733;28;20068;-68
2023/02/12 12:05:36;;;;;;;49.70;37.53;;;;;;;;;;10328637;28;20079;-68
2023/02/12 12:10:39;;;;;;;49.95;37.10;;;;;;;;;;10335943;28;20574;-67
2023/02/12 12:21:01;;;;;;;51.08;36.75;;;;;;;;;;10341685;28;20425;-67
2023/02/12 12:26:03;;;;;;;53.83;41.88;;;;;;;;;;10339254;28;20079;-67
2023/02/12 12:31:09;;;;;;;62.35;43.53;;;;;;;;;;10337405;28;20044;-66
2023/02/12 12:36:25;;;;;;;54.08;39.72;;;;;;;;;;10337720;28;20071;-67
2023/02/12 12:41:26;;;;;;;55.72;41.53;;;;;;;;;;10317618;28;20072;-67
2023/02/12 12:46:34;;;;;;;43.35;32.35;;;;;;;;;;10318237;28;20154;-67
2023/02/12 12:51:41;;;;;;;51.00;37.72;;;;;;;;;;10336300;28;20506;-67
2023/02/12 12:56:46;;;;;;;44.28;32.60;;;;;;;;;;10338373;28;20068;-67
2023/02/12 13:01:51;;;;;;;47.55;36.25;;;;;;;;;;10341301;28;20044;-68
2023/02/12 13:06:56;;;;;;;57.28;40.92;;;;;;;;;;10331264;28;20430;-68
2023/02/12 13:12:17;;;;;;;68.10;45.50;;;;;;;;;;10335657;28;20063;-67
2023/02/12 13:17:29;;;;;;;53.70;35.05;;;;;;;;;;10318045;28;20129;-68
2023/02/12 13:22:45;;;;;;;56.22;40.38;;;;;;;;;;10313408;28;20500;-69
2023/02/12 13:28:11;;;;;;;42.78;31.73;;;;;;;;;;10318715;28;20090;-68
2023/02/12 13:33:24;;;;;;;55.42;38.40;;;;;;;;;;10333891;28;20071;-68
2023/02/12 13:38:26;;;;;;;51.55;38.75;;;;;;;;;;10319292;28;20072;-68
2023/02/12 13:43:38;;;;;;;46.10;35.47;;;;;;;;;;10332711;28;20085;-68
2023/02/12 13:48:50;;;;;;;53.03;34.83;;;;;;;;;;10339600;28;20071;-69
2023/02/12 13:54:01;;;;;;;57.92;41.28;;;;;;;;;;10339178;28;20074;-68
2023/02/12 13:59:03;;;;;;;62.70;43.70;;;;;;;;;;10339479;28;20067;-68
2023/02/12 14:04:15;;;;;;;76.82;51.67;;;;;;;;;;10316011;28;20095;-68
2023/02/12 14:09:20;;;;;;;104.30;75.13;;;;;;;;;;10330047;28;20529;-68
2023/02/12 14:14:24;;;;;;;77.32;59.15;;;;;;;;;;10331510;28;20075;-68
2023/02/12 14:19:52;;;;;;;66.57;50.40;;;;;;;;;;10326568;28;20078;-68
2023/02/12 14:24:51;;;;;;;74.55;60.67;;;;;;;;;;10328883;28;20451;-69
2023/02/12 14:30:23;;;;;;;77.47;58.80;;;;;;;;;;10342931;28;20490;-67
2023/02/12 14:35:32;;;;;;;83.22;59.55;;;;;;;;;;10332664;28;20083;-68
2023/02/12 14:40:43;;;;;;;115.72;79.45;;;;;;;;;;10341621;28;20079;-66
2023/02/12 14:45:41;;;;;;;105.93;74.13;;;;;;;;;;10339998;28;20063;-67
2023/02/12 14:50:48;;;;;;;132.52;84.43;;;;;;;;;;10343452;28;20352;-67
2023/02/12 14:55:50;;;;;;;66.35;49.60;;;;;;;;;;10349082;28;20649;-67
2023/02/12 15:00:51;;;;;;;52.30;40.65;;;;;;;;;;10345063;28;20056;-69
2023/02/12 15:05:59;;;;;;;159.38;95.63;;;;;;;;;;10337528;28;20072;-67
2023/02/12 15:11:01;;;;;;;137.30;80.85;;;;;;;;;;10335609;28;20059;-67
2023/02/12 15:16:01;;;;;;;52.15;42.63;;;;;;;;;;10333546;28;20081;-67
2023/02/12 15:21:04;;;;;;;55.40;41.53;;;;;;;;;;10330879;28;20072;-67
2023/02/12 15:26:03;;;;;;;65.95;46.60;;;;;;;;;;10342509;28;20761;-68
2023/02/12 15:31:02;;;;;;;50.97;36.95;;;;;;;;;;10329073;28;20206;-69
2023/02/12 15:36:03;;;;;;;65.15;44.70;;;;;;;;;;10329588;28;20120;-70
2023/02/12 15:41:01;;;;;;;72.28;52.28;;;;;;;;;;10329951;28;20075;-68
2023/02/12 15:46:00;;;;;;;157.60;100.80;;;;;;;;;;10332918;28;20060;-70
2023/02/12 15:51:04;;;;;;;127.15;82.63;;;;;;;;;;10341296;28;20531;-69
2023/02/12 15:56:02;;;;;;;305.02;174.63;;;;;;;;;;10332691;28;20082;-69
2023/02/12 16:01:02;;;;;;;184.63;122.47;;;;;;;;;;10336126;28;20078;-70
2023/02/12 16:06:03;;;;;;;170.85;107.80;;;;;;;;;;10331950;28;20091;-70
2023/02/12 16:11:12;;;;;;;131.85;83.45;;;;;;;;;;10315477;28;20076;-70
2023/02/12 16:16:28;;;;;;;120.68;80.55;;;;;;;;;;10338823;28;20216;-70
2023/02/12 16:21:28;;;;;;;84.22;59.40;;;;;;;;;;10339104;28;20486;-70
2023/02/12 16:26:27;;;;;;;174.98;117.13;;;;;;;;;;10335737;28;20082;-69
2023/02/12 16:31:26;;;;;;;233.35;139.88;;;;;;;;;;10334988;28;20087;-70
2023/02/12 16:36:30;;;;;;;103.80;58.90;;;;;;;;;;10330981;28;20064;-70
2023/02/12 16:41:30;;;;;;;123.77;70.10;;;;;;;;;;10332417;28;20078;-70
2023/02/12 16:46:29;;;;;;;143.50;84.90;;;;;;;;;;10305492;28;20071;-69
2023/02/12 16:51:28;;;;;;;64.18;46.83;;;;;;;;;;10330999;28;20493;-70
2023/02/12 16:56:28;;;;;;;59.85;43.15;;;;;;;;;;10341211;28;20447;-69
2023/02/12 17:01:27;;;;;;;51.42;38.38;;;;;;;;;;10334721;28;20092;-69
2023/02/12 17:06:26;;;;;;;63.97;44.17;;;;;;;;;;10334466;28;20694;-68
2023/02/12 17:11:25;;;;;;;90.00;51.65;;;;;;;;;;10335886;28;20074;-69
2023/02/12 17:16:25;;;;;;;61.38;41.10;;;;;;;;;;10332094;28;20461;-69
2023/02/12 17:21:29;;;;;;;58.53;38.13;;;;;;;;;;10334918;28;20072;-69
2023/02/12 17:26:27;;;;;;;67.80;41.13;;;;;;;;;;10333273;28;20064;-69
2023/02/12 17:31:28;;;;;;;50.00;32.90;;;;;;;;;;10335178;28;20079;-69
2023/02/12 17:36:26;;;;;;;52.72;38.40;;;;;;;;;;10332852;28;20149;-69
2023/02/12 17:41:24;;;;;;;46.92;32.30;;;;;;;;;;10316088;28;20071;-70
2023/02/12 17:46:25;;;;;;;62.53;40.50;;;;;;;;;;10334761;28;20469;-69
2023/02/12 17:51:24;;;;;;;47.45;33.40;;;;;;;;;;10321591;28;20052;-69
2023/02/12 17:56:24;;;;;;;44.70;32.50;;;;;;;;;;10314940;28;20501;-69
2023/02/12 18:01:23;;;;;;;81.57;49.80;;;;;;;;;;10334260;28;20095;-69
2023/02/12 18:06:22;;;;;;;48.38;33.95;;;;;;;;;;10332486;28;20076;-68
2023/02/12 18:11:22;;;;;;;51.97;35.53;;;;;;;;;;10333218;28;20076;-68
2023/02/12 18:16:20;;;;;;;72.55;47.30;;;;;;;;;;10313189;28;20071;-69
2023/02/12 18:21:18;;;;;;;55.55;37.28;;;;;;;;;;10331787;28;20072;-68
2023/02/12 18:26:17;;;;;;;42.35;32.35;;;;;;;;;;10333532;28;20080;-69
2023/02/12 18:31:18;;;;;;;41.75;32.28;;;;;;;;;;10335158;28;20086;-68
2023/02/12 18:36:18;;;;;;;47.92;33.38;;;;;;;;;;10331372;28;20080;-69
2023/02/12 18:41:17;;;;;;;136.68;91.07;;;;;;;;;;10331785;28;20076;-68
2023/02/12 18:46:16;;;;;;;202.82;136.25;;;;;;;;;;10331923;28;20079;-69
2023/02/12 18:51:17;;;;;;;86.05;60.13;;;;;;;;;;10332797;28;20500;-69
2023/02/12 18:56:15;;;;;;;73.80;51.90;;;;;;;;;;10330648;28;20516;-69
2023/02/12 19:01:14;;;;;;;108.70;69.90;;;;;;;;;;10334056;28;20072;-68
2023/02/12 19:06:13;;;;;;;122.20;77.68;;;;;;;;;;10330949;28;20072;-70
2023/02/12 19:11:14;;;;;;;130.20;85.10;;;;;;;;;;10333427;28;20076;-68
2023/02/12 19:16:14;;;;;;;57.92;41.33;;;;;;;;;;10331271;28;20076;-69
2023/02/12 19:21:13;;;;;;;57.47;38.58;;;;;;;;;;10337841;28;20075;-69
2023/02/12 19:26:12;;;;;;;65.57;44.85;;;;;;;;;;10335348;28;20486;-69
2023/02/12 19:31:13;;;;;;;89.78;59.30;;;;;;;;;;10330175;28;20547;-69
2023/02/12 19:36:13;;;;;;;71.35;49.63;;;;;;;;;;10338397;28;20525;-70
2023/02/12 19:41:12;;;;;;;67.93;48.53;;;;;;;;;;10336562;28;20067;-70
2023/02/12 19:46:13;;;;;;;65.00;47.03;;;;;;;;;;10329816;28;20458;-70
2023/02/12 19:51:13;;;;;;;78.40;56.25;;;;;;;;;;10312575;28;20048;-69
2023/02/12 19:56:11;;;;;;;64.43;45.35;;;;;;;;;;10329580;28;20068;-70
2023/02/12 20:01:10;;;;;;;43.78;34.72;;;;;;;;;;10329930;28;20541;-69
2023/02/12 20:06:11;;;;;;;40.65;30.25;;;;;;;;;;10340890;28;20086;-69
2023/02/12 20:11:10;;;;;;;48.03;34.17;;;;;;;;;;10338101;28;20078;-69
2023/02/12 20:16:10;;;;;;;47.20;35.63;;;;;;;;;;10331131;28;20071;-69
2023/02/12 20:21:10;;;;;;;42.65;32.60;;;;;;;;;;10334151;28;20074;-69
2023/02/12 20:26:10;;;;;;;45.30;30.75;;;;;;;;;;10329747;28;20072;-70
2023/02/12 20:31:09;;;;;;;50.67;33.85;;;;;;;;;;10335195;28;20076;-69
2023/02/12 20:36:07;;;;;;;47.33;31.13;;;;;;;;;;10333530;28;20329;-69
2023/02/12 20:41:08;;;;;;;48.15;33.47;;;;;;;;;;10343883;28;20177;-70
2023/02/12 20:46:08;;;;;;;37.33;28.77;;;;;;;;;;10336781;28;20056;-70
2023/02/12 20:51:07;;;;;;;57.20;37.53;;;;;;;;;;10336947;28;20307;-70
2023/02/12 20:56:07;;;;;;;129.32;73.57;;;;;;;;;;10335183;28;20064;-70
2023/02/12 21:01:06;;;;;;;129.43;78.60;;;;;;;;;;10338323;28;20091;-69
2023/02/12 21:06:04;;;;;;;44.33;33.70;;;;;;;;;;10338663;28;20078;-70
2023/02/12 21:11:06;;;;;;;39.03;29.02;;;;;;;;;;10336145;28;20076;-69
2023/02/12 21:16:07;;;;;;;45.40;32.03;;;;;;;;;;10318923;28;20044;-69
2023/02/12 21:21:07;;;;;;;38.03;27.63;;;;;;;;;;10340718;28;20076;-69
2023/02/12 21:26:06;;;;;;;46.28;27.85;;;;;;;;;;10341139;28;20478;-69
2023/02/12 21:31:09;;;;;;;95.35;55.78;;;;;;;;;;10335862;28;20064;-69
2023/02/12 21:36:12;;;;;;;61.58;38.97;;;;;;;;;;10336135;28;20075;-69
2023/02/12 21:41:12;;;;;;;39.17;25.33;;;;;;;;;;10354331;28;20075;-69
2023/02/12 21:46:11;;;;;;;35.70;24.52;;;;;;;;;;10335755;28;20072;-69
2023/02/12 21:51:16;;;;;;;34.50;23.95;;;;;;;;;;10338546;28;20363;-69
2023/02/12 21:56:18;;;;;;;33.15;24.10;;;;;;;;;;10329536;28;20521;-69
2023/02/12 22:01:18;;;;;;;27.25;20.88;;;;;;;;;;10323663;28;20158;-70
2023/02/12 22:06:18;;;;;;;38.55;25.50;;;;;;;;;;10333282;28;20079;-70
2023/02/12 22:11:16;;;;;;;44.80;27.58;;;;;;;;;;10336855;28;20087;-68
2023/02/12 22:16:15;;;;;;;27.27;19.60;;;;;;;;;;10336376;28;20068;-69
2023/02/12 22:21:15;;;;;;;18.88;14.15;;;;;;;;;;10331794;28;20074;-69
2023/02/12 22:26:15;;;;;;;22.58;16.42;;;;;;;;;;10334858;28;20075;-70
2023/02/12 22:31:15;;;;;;;16.27;11.48;;;;;;;;;;10332837;28;20068;-70
2023/02/12 22:36:16;;;;;;;17.48;12.48;;;;;;;;;;10332076;28;20087;-70
2023/02/12 22:41:15;;;;;;;15.98;12.23;;;;;;;;;;10332313;28;20068;-69
2023/02/12 22:46:13;;;;;;;16.17;13.40;;;;;;;;;;10313041;28;20040;-69
2023/02/12 22:51:13;;;;;;;20.48;15.55;;;;;;;;;;10332931;28;20543;-70
2023/02/12 22:56:12;;;;;;;31.15;20.42;;;;;;;;;;10329423;28;20071;-70
2023/02/12 23:01:11;;;;;;;55.92;34.83;;;;;;;;;;10328660;28;20079;-70
2023/02/12 23:06:10;;;;;;;37.08;23.42;;;;;;;;;;10329871;28;20076;-69
2023/02/12 23:11:09;;;;;;;32.40;20.95;;;;;;;;;;10329464;28;20063;-69
2023/02/12 23:16:09;;;;;;;25.15;15.13;;;;;;;;;;10334064;28;20063;-69
2023/02/12 23:21:07;;;;;;;30.98;19.35;;;;;;;;;;10335377;28;20087;-69
2023/02/12 23:26:05;;;;;;;24.83;15.57;;;;;;;;;;10333229;28;20492;-69
2023/02/12 23:31:03;;;;;;;59.00;33.30;;;;;;;;;;10331055;28;20098;-69
2023/02/12 23:36:03;;;;;;;25.73;16.08;;;;;;;;;;10329090;28;20075;-69
2023/02/12 23:41:01;;;;;;;20.38;14.35;;;;;;;;;;10331370;28;20647;-69
2023/02/12 23:45:59;;;;;;;12.88;9.20;;;;;;;;;;10329699;28;20448;-69
2023/02/12 23:50:58;;;;;;;14.68;11.50;;;;;;;;;;10329996;28;20072;-69
2023/02/12 23:55:58;;;;;;;26.48;16.98;;;;;;;;;;10329529;28;20103;-69
